Historyczne dane pomiarowe

Dodano dane terminowe – wersja testowa.

Dane z okresu 1951-2019

Wersja bazy: 1.34 [2019-03-16, lista zmian], aktualizacja planowana na 2019-04-15

Dane meteo z obszaru Polski uzyskane na podstawie danych udostępnionych przez Instytut Meteorologii i Gospodarki Wodnej – Państwowy Instytut Badawczy.

 

Wybierz Datę:    

       

TemperaturaWilgotnośćWiatrCiśnienieOpadyŚniegCzas trwania zjawisk
 Stacja t tx tn tng RH VA  wxwx mslp ppp RRR   cm mm wxwxwxwxwxwxwx
1956-11-09 -2.3 1.2 -4.7-10.4 77.0- 2.7 3.3---- 0.0------------
1956-11-08 -2.1 1.7 -5.8 -9.6 85.0- 2.7 1.3---- 0.0------------
1956-11-07 0.5 1.4 0.2 2.4 97.0- 8.0 1.0---- 4.1------------
1956-11-06 1.7 4.9 0.2 -2.4 87.3- 7.0 6.7---- 5.4------------
1956-11-05 5.5 8.1 1.3 0.2 83.0- 7.0 6.3---- 1.2------------
1956-11-04 1.1 6.0 -3.5 -8.4 80.0- 4.3 2.0---- 0.8------------
1956-11-03 0.6 3.8 -3.9 -6.5 91.0- 6.3 0.3---- 0.0------------
1956-11-02 -0.2 1.1 -2.9 -6.4 95.5- 8.0 1.7---- 0.7------------
1956-11-01 -2.6 3.6-10.2-10.2 73.0- 1.0 0.3---- 0.9------------
1956-10-31 -4.2 2.7 -6.2 -2.9 81.0- 3.0 5.7---- 0.0------------
1956-10-30 4.6 8.2 2.7 3.2 86.0- 7.7 3.3---- 0.1------------
1956-10-29 5.1 9.6 4.8 4.4 93.0- 8.0 2.7---- 17.7------------
1956-10-28 9.4 9.8 6.3 1.5 95.3- 8.0 0.7---- 16.6------------
1956-10-27 7.6 10.6 3.9 6.4 95.8- 8.0 2.0---- 7.2------------
1956-10-26 7.4 10.3 6.8 4.4 94.8- 8.0 1.0---- 10.2------------
1956-10-25 10.7 15.3 4.6 0.1 85.0- 6.7 1.7---- 4.3------------
1956-10-24 10.4 18.5 2.3 0.2 82.0- 3.3 1.0---- 0.0------------
1956-10-23 9.3 15.0 3.8- 86.3- 3.3 2.7---- 0.0------------
1956-10-22 9.9 18.9 3.0 -0.1 91.3- 0.0 0.0---- 0.0------------
1956-10-21 10.7 18.1 7.3 2.5 91.0- 4.7 1.0---- 0.0------------
1956-10-20 11.4 15.9 7.6 4.8 88.8- 7.3 0.7---- 0.0------------
1956-10-19 12.2 14.7 11.1 7.5 90.3- 7.3 2.7---- 0.0------------
1956-10-18 11.4 14.5 5.7 -0.7 88.3- 8.0 2.3---- 1.3------------
1956-10-17 8.3 16.4 1.2 -1.1 77.8- 1.3 3.3---- 0.0------------
1956-10-16 4.7 12.6 -1.8 -4.7 84.3- 2.7 0.3---- 0.0------------
1956-10-15 4.9 12.8 1.2- 88.3- 3.7 0.7---- 0.0------------
1956-10-14 9.1 14.0 5.6- 80.3- 5.7 7.0---- 1.4------------
1956-10-13 11.2 12.6 6.4 1.0 71.3- 7.3 8.3---- 0.0------------
1956-10-12 8.7 14.9 6.2 2.7 81.0- 4.3 4.7---- 0.0------------
1956-10-11 6.3 11.8 -2.3 -5.0 76.5- 4.0 2.0---- 0.0------------
1956-10-10 2.7 9.6 -0.3 -2.6 83.5- 0.0 0.7---- 0.0------------
1956-10-09 8.0 10.2 2.6 0.5 83.0- 8.0 3.7---- 1.4------------
1956-10-08 4.1 9.8 -0.4 -2.3 80.0- 1.3 2.3---- 0.0------------
1956-10-07 5.6 9.6 3.3 5.5 79.5- 5.3 6.3---- 2.6------------
1956-10-06 6.4 9.0 5.8 3.7 83.8- 8.0 5.0---- 2.0------------
1956-10-05 8.5 13.8 6.2 4.7 83.0- 7.0 1.7---- 1.6------------
1956-10-04 11.3 14.7 7.0 5.9 84.5- 6.0 1.7---- 4.1------------
1956-10-03 13.6 19.4 8.9 8.4 80.5- 6.0 5.0---- 2.9------------
1956-10-02 17.7 25.7 10.1 5.6 70.5- 2.7 4.0---- 0.0------------
1956-10-01 17.3 25.2 10.5 5.8 76.8- 2.7 2.0---- 0.0------------
1956-09-30 12.9 20.6 10.2 6.0 83.8- 1.0 1.0---- 0.0------------
1956-09-29 16.9 21.9 14.4 10.4 75.8- 7.0 4.3---- 0.4------------
1956-09-28 16.2 19.2 10.6 5.5 72.0- 5.0 6.3---- 0.0------------
1956-09-27 16.1 22.6 13.2 6.0 76.8- 2.7 2.0---- 0.0------------
1956-09-26 15.9 23.4 9.0 3.9 55.5- 0.0 5.7---- 0.0------------
1956-09-25 14.0 23.5 5.8 0.4 67.0- 0.0 3.0---- 0.0------------
1956-09-24 12.2 18.2 7.0- 60.5- 0.0 4.3---- 0.0------------
1956-09-23 13.8 20.3 8.3 4.3 73.3- 0.0 4.3---- 0.0------------
1956-09-22 14.0 21.6 4.8 3.9 74.0- 0.0 3.3---- 0.0------------
1956-09-21 10.9 19.6 2.0 0.7 80.3- 0.0 1.0---- 0.0------------
1956-09-20 10.0 18.2 3.7- 79.0- 5.3 1.0---- 0.0------------
1956-09-19 8.8 15.8 0.8 -1.3 78.8- 2.0 1.3---- 0.0------------
1956-09-18 8.3 14.9 5.8 3.3 86.0- 3.3 1.7---- 0.0------------
1956-09-17 9.0 11.8 7.0- 94.5- 5.3 5.0---- 14.9------------
1956-09-16 9.7 17.0 1.7- 80.3- 3.3 2.3---- 0.7------------
1956-09-15 9.2 14.7 2.8 -0.8 89.5- 3.7 1.3---- 0.0------------
1956-09-14 10.0 16.0 7.9 5.5 84.3- 4.0 2.3---- 0.0------------
1956-09-13 9.8 14.1 7.7 6.9 87.5- 6.0 5.7---- 9.6------------
1956-09-12 11.2 16.4 8.9 8.8 79.3- 5.3 8.3---- 2.3------------
1956-09-11 15.7 18.4 14.3 13.9 88.8- 6.7 4.3---- 6.6------------
222.5 ms

 

Źródłem pochodzenia danych jest Instytut Meteorologii i Gospodarki Wodnej – Państwowy Instytut Badawczy. Dane Instytutu Meteorologii i Gospodarki Wodnej – Państwowego Instytutu Badawczego zostały przetworzone.

Dane źródłowe można odnaleźć na stronie https://dane.imgw.pl